Terminal Aerodrome Forecast
Issued by NWS

Home | Current Version | Previous Version | Text Only | Print | Product List | Glossary On
Versions: 1 2 3 4 5 6 7 8 9 10 11 12 13 14 15 16 17 18 19 20
479
FTUS44 KLZK 271745
TAFBPK
TAF
KBPK 271745Z 2718/2818 17005KT P6SM SCT250
     FM280100 15004KT P6SM SCT250
     FM280800 30003KT P6SM SCT250=

USA.gov is the U.S. government's official web portal to all federal, state and local government web resources and services.